sensor_id;sensor_type;location;lat;lon;timestamp;P1;durP1;ratioP1;P2;durP2;ratioP2
47625;SDS011;33342;45.574;9.252;2023-04-24T00:01:49;9.15;;;6.55;;
47625;SDS011;33342;45.574;9.252;2023-04-24T00:04:16;10.48;;;6.45;;
47625;SDS011;33342;45.574;9.252;2023-04-24T00:06:44;9.98;;;6.70;;
47625;SDS011;33342;45.574;9.252;2023-04-24T00:09:15;11.60;;;7.20;;
47625;SDS011;33342;45.574;9.252;2023-04-24T00:11:42;8.88;;;7.25;;
47625;SDS011;33342;45.574;9.252;2023-04-24T00:14:09;10.25;;;7.47;;
47625;SDS011;33342;45.574;9.252;2023-04-24T00:16:36;12.18;;;7.82;;
47625;SDS011;33342;45.574;9.252;2023-04-24T00:19:03;10.65;;;7.82;;
47625;SDS011;33342;45.574;9.252;2023-04-24T00:21:32;9.88;;;7.30;;
47625;SDS011;33342;45.574;9.252;2023-04-24T00:23:59;9.57;;;6.95;;
47625;SDS011;33342;45.574;9.252;2023-04-24T00:26:26;10.15;;;8.00;;
47625;SDS011;33342;45.574;9.252;2023-04-24T00:28:53;11.55;;;8.45;;
47625;SDS011;33342;45.574;9.252;2023-04-24T00:31:20;12.75;;;8.57;;
47625;SDS011;33342;45.574;9.252;2023-04-24T00:33:47;10.30;;;8.35;;
47625;SDS011;33342;45.574;9.252;2023-04-24T00:36:14;13.32;;;8.63;;
47625;SDS011;33342;45.574;9.252;2023-04-24T00:38:41;11.80;;;8.80;;
47625;SDS011;33342;45.574;9.252;2023-04-24T00:41:08;11.30;;;8.23;;
47625;SDS011;33342;45.574;9.252;2023-04-24T00:43:35;13.93;;;9.20;;
47625;SDS011;33342;45.574;9.252;2023-04-24T00:46:02;9.93;;;6.38;;
47625;SDS011;33342;45.574;9.252;2023-04-24T00:48:30;10.02;;;8.60;;
47625;SDS011;33342;45.574;9.252;2023-04-24T00:50:57;12.30;;;8.85;;
47625;SDS011;33342;45.574;9.252;2023-04-24T00:53:25;11.68;;;8.75;;
47625;SDS011;33342;45.574;9.252;2023-04-24T00:55:52;10.02;;;8.48;;
47625;SDS011;33342;45.574;9.252;2023-04-24T00:58:19;11.52;;;8.02;;
47625;SDS011;33342;45.574;9.252;2023-04-24T01:00:46;11.15;;;7.63;;
47625;SDS011;33342;45.574;9.252;2023-04-24T01:03:15;12.48;;;7.82;;
47625;SDS011;33342;45.574;9.252;2023-04-24T01:05:43;10.00;;;7.53;;
47625;SDS011;33342;45.574;9.252;2023-04-24T01:08:10;8.65;;;5.85;;
47625;SDS011;33342;45.574;9.252;2023-04-24T01:10:37;10.02;;;6.18;;
47625;SDS011;33342;45.574;9.252;2023-04-24T01:13:07;10.77;;;9.02;;
47625;SDS011;33342;45.574;9.252;2023-04-24T01:15:34;10.45;;;8.43;;
47625;SDS011;33342;45.574;9.252;2023-04-24T01:18:02;11.57;;;8.73;;
47625;SDS011;33342;45.574;9.252;2023-04-24T01:20:29;12.27;;;9.20;;
47625;SDS011;33342;45.574;9.252;2023-04-24T01:22:58;14.30;;;8.82;;
47625;SDS011;33342;45.574;9.252;2023-04-24T01:25:25;12.85;;;9.00;;
47625;SDS011;33342;45.574;9.252;2023-04-24T01:27:56;11.38;;;9.45;;
47625;SDS011;33342;45.574;9.252;2023-04-24T01:30:23;13.75;;;9.70;;
47625;SDS011;33342;45.574;9.252;2023-04-24T01:32:50;11.13;;;9.23;;
47625;SDS011;33342;45.574;9.252;2023-04-24T01:35:19;12.07;;;9.10;;
47625;SDS011;33342;45.574;9.252;2023-04-24T01:37:46;12.00;;;9.13;;
47625;SDS011;33342;45.574;9.252;2023-04-24T01:40:13;11.55;;;9.32;;
47625;SDS011;33342;45.574;9.252;2023-04-24T01:42:41;11.43;;;9.23;;
47625;SDS011;33342;45.574;9.252;2023-04-24T01:45:10;11.85;;;9.00;;
47625;SDS011;33342;45.574;9.252;2023-04-24T01:47:39;11.63;;;8.88;;
47625;SDS011;33342;45.574;9.252;2023-04-24T01:50:06;11.30;;;9.25;;
47625;SDS011;33342;45.574;9.252;2023-04-24T01:52:33;10.75;;;9.35;;
47625;SDS011;33342;45.574;9.252;2023-04-24T01:55:03;11.95;;;9.80;;
47625;SDS011;33342;45.574;9.252;2023-04-24T01:57:31;11.52;;;9.07;;
47625;SDS011;33342;45.574;9.252;2023-04-24T01:59:59;10.60;;;7.55;;
47625;SDS011;33342;45.574;9.252;2023-04-24T02:02:28;11.95;;;7.50;;
47625;SDS011;33342;45.574;9.252;2023-04-24T02:04:56;9.52;;;8.00;;
47625;SDS011;33342;45.574;9.252;2023-04-24T02:07:23;10.07;;;7.40;;
47625;SDS011;33342;45.574;9.252;2023-04-24T02:09:51;10.18;;;7.20;;
47625;SDS011;33342;45.574;9.252;2023-04-24T02:12:18;9.50;;;7.43;;
47625;SDS011;33342;45.574;9.252;2023-04-24T02:14:45;11.85;;;7.25;;
47625;SDS011;33342;45.574;9.252;2023-04-24T02:17:12;9.70;;;6.95;;
47625;SDS011;33342;45.574;9.252;2023-04-24T02:19:40;9.05;;;6.93;;
47625;SDS011;33342;45.574;9.252;2023-04-24T02:22:09;8.70;;;6.72;;
47625;SDS011;33342;45.574;9.252;2023-04-24T02:24:37;10.50;;;7.22;;
47625;SDS011;33342;45.574;9.252;2023-04-24T02:27:05;11.23;;;7.00;;
47625;SDS011;33342;45.574;9.252;2023-04-24T02:29:33;9.65;;;6.75;;
47625;SDS011;33342;45.574;9.252;2023-04-24T02:32:00;9.60;;;6.97;;
47625;SDS011;33342;45.574;9.252;2023-04-24T02:34:27;9.98;;;6.68;;
47625;SDS011;33342;45.574;9.252;2023-04-24T02:36:54;9.50;;;5.93;;
47625;SDS011;33342;45.574;9.252;2023-04-24T02:39:21;8.27;;;5.60;;
47625;SDS011;33342;45.574;9.252;2023-04-24T02:41:48;8.65;;;5.97;;
47625;SDS011;33342;45.574;9.252;2023-04-24T02:44:15;7.70;;;5.00;;
47625;SDS011;33342;45.574;9.252;2023-04-24T02:46:43;6.95;;;5.13;;
47625;SDS011;33342;45.574;9.252;2023-04-24T02:49:11;7.43;;;5.15;;
47625;SDS011;33342;45.574;9.252;2023-04-24T02:51:38;8.40;;;4.82;;
47625;SDS011;33342;45.574;9.252;2023-04-24T02:54:08;8.52;;;4.72;;
47625;SDS011;33342;45.574;9.252;2023-04-24T02:56:36;7.55;;;4.82;;
47625;SDS011;33342;45.574;9.252;2023-04-24T02:59:05;8.27;;;4.95;;
47625;SDS011;33342;45.574;9.252;2023-04-24T03:01:32;8.23;;;5.18;;
47625;SDS011;33342;45.574;9.252;2023-04-24T03:04:00;8.68;;;5.20;;
47625;SDS011;33342;45.574;9.252;2023-04-24T03:06:27;8.65;;;4.57;;
47625;SDS011;33342;45.574;9.252;2023-04-24T03:08:54;7.10;;;4.72;;
47625;SDS011;33342;45.574;9.252;2023-04-24T03:11:21;6.63;;;4.18;;
47625;SDS011;33342;45.574;9.252;2023-04-24T03:13:48;7.20;;;4.72;;
47625;SDS011;33342;45.574;9.252;2023-04-24T03:16:15;6.55;;;4.38;;
47625;SDS011;33342;45.574;9.252;2023-04-24T03:18:42;8.05;;;4.45;;
47625;SDS011;33342;45.574;9.252;2023-04-24T03:21:09;8.63;;;4.68;;
47625;SDS011;33342;45.574;9.252;2023-04-24T03:23:36;8.55;;;4.30;;
47625;SDS011;33342;45.574;9.252;2023-04-24T03:26:03;7.03;;;4.40;;
47625;SDS011;33342;45.574;9.252;2023-04-24T03:28:32;8.13;;;4.60;;
47625;SDS011;33342;45.574;9.252;2023-04-24T03:31:03;6.65;;;4.85;;
47625;SDS011;33342;45.574;9.252;2023-04-24T03:33:34;7.28;;;4.85;;
47625;SDS011;33342;45.574;9.252;2023-04-24T03:36:02;6.70;;;4.10;;
47625;SDS011;33342;45.574;9.252;2023-04-24T03:38:37;6.95;;;4.70;;
47625;SDS011;33342;45.574;9.252;2023-04-24T03:41:18;7.13;;;4.95;;
47625;SDS011;33342;45.574;9.252;2023-04-24T03:43:49;9.10;;;3.78;;
47625;SDS011;33342;45.574;9.252;2023-04-24T03:46:16;7.38;;;5.15;;
47625;SDS011;33342;45.574;9.252;2023-04-24T03:48:52;8.43;;;5.53;;
47625;SDS011;33342;45.574;9.252;2023-04-24T03:51:23;7.38;;;5.10;;
47625;SDS011;33342;45.574;9.252;2023-04-24T03:53:54;6.45;;;4.32;;
47625;SDS011;33342;45.574;9.252;2023-04-24T03:56:22;8.18;;;4.80;;
47625;SDS011;33342;45.574;9.252;2023-04-24T03:58:49;7.20;;;4.45;;
47625;SDS011;33342;45.574;9.252;2023-04-24T04:01:17;6.75;;;3.70;;
47625;SDS011;33342;45.574;9.252;2023-04-24T04:03:50;6.53;;;4.28;;
47625;SDS011;33342;45.574;9.252;2023-04-24T04:06:20;8.00;;;4.57;;
47625;SDS011;33342;45.574;9.252;2023-04-24T04:08:50;7.25;;;4.40;;
47625;SDS011;33342;45.574;9.252;2023-04-24T04:11:17;7.28;;;4.78;;
47625;SDS011;33342;45.574;9.252;2023-04-24T04:13:44;6.38;;;3.45;;
47625;SDS011;33342;45.574;9.252;2023-04-24T04:16:16;6.07;;;3.05;;
47625;SDS011;33342;45.574;9.252;2023-04-24T04:18:45;7.43;;;4.13;;
47625;SDS011;33342;45.574;9.252;2023-04-24T04:21:12;6.50;;;3.35;;
47625;SDS011;33342;45.574;9.252;2023-04-24T04:23:39;5.95;;;3.60;;
47625;SDS011;33342;45.574;9.252;2023-04-24T04:26:12;6.20;;;3.08;;
47625;SDS011;33342;45.574;9.252;2023-04-24T04:28:55;5.55;;;2.85;;
47625;SDS011;33342;45.574;9.252;2023-04-24T04:31:22;4.45;;;2.45;;
47625;SDS011;33342;45.574;9.252;2023-04-24T04:33:50;3.33;;;1.63;;
47625;SDS011;33342;45.574;9.252;2023-04-24T04:36:17;4.93;;;2.20;;
47625;SDS011;33342;45.574;9.252;2023-04-24T04:38:49;4.88;;;2.63;;
47625;SDS011;33342;45.574;9.252;2023-04-24T04:41:33;4.57;;;2.50;;
47625;SDS011;33342;45.574;9.252;2023-04-24T04:44:01;5.50;;;2.75;;
47625;SDS011;33342;45.574;9.252;2023-04-24T04:46:31;4.88;;;1.95;;
47625;SDS011;33342;45.574;9.252;2023-04-24T04:49:07;4.70;;;2.47;;
47625;SDS011;33342;45.574;9.252;2023-04-24T04:51:35;5.05;;;2.60;;
47625;SDS011;33342;45.574;9.252;2023-04-24T04:54:02;5.10;;;2.33;;
47625;SDS011;33342;45.574;9.252;2023-04-24T04:56:29;5.60;;;3.40;;
47625;SDS011;33342;45.574;9.252;2023-04-24T04:58:59;5.57;;;2.60;;
47625;SDS011;33342;45.574;9.252;2023-04-24T05:01:26;6.35;;;3.65;;
47625;SDS011;33342;45.574;9.252;2023-04-24T05:03:54;7.95;;;4.07;;
47625;SDS011;33342;45.574;9.252;2023-04-24T05:06:22;5.35;;;3.47;;
47625;SDS011;33342;45.574;9.252;2023-04-24T05:08:50;4.93;;;3.13;;
47625;SDS011;33342;45.574;9.252;2023-04-24T05:11:29;4.65;;;2.50;;
47625;SDS011;33342;45.574;9.252;2023-04-24T05:13:58;4.82;;;2.55;;
47625;SDS011;33342;45.574;9.252;2023-04-24T05:16:33;5.90;;;3.80;;
47625;SDS011;33342;45.574;9.252;2023-04-24T05:19:00;5.85;;;2.67;;
47625;SDS011;33342;45.574;9.252;2023-04-24T05:21:33;5.35;;;2.80;;
47625;SDS011;33342;45.574;9.252;2023-04-24T05:24:00;6.78;;;2.70;;
47625;SDS011;33342;45.574;9.252;2023-04-24T05:26:45;5.30;;;3.15;;
47625;SDS011;33342;45.574;9.252;2023-04-24T05:29:15;6.15;;;3.65;;
47625;SDS011;33342;45.574;9.252;2023-04-24T05:31:42;6.15;;;3.65;;
47625;SDS011;33342;45.574;9.252;2023-04-24T05:34:09;5.97;;;3.35;;
47625;SDS011;33342;45.574;9.252;2023-04-24T05:36:40;4.85;;;2.75;;
47625;SDS011;33342;45.574;9.252;2023-04-24T05:39:07;5.85;;;2.42;;
47625;SDS011;33342;45.574;9.252;2023-04-24T05:41:35;5.30;;;2.67;;
47625;SDS011;33342;45.574;9.252;2023-04-24T05:44:02;5.93;;;2.58;;
47625;SDS011;33342;45.574;9.252;2023-04-24T05:46:29;4.55;;;2.38;;
47625;SDS011;33342;45.574;9.252;2023-04-24T05:48:56;5.55;;;2.88;;
47625;SDS011;33342;45.574;9.252;2023-04-24T05:51:23;5.55;;;3.42;;
47625;SDS011;33342;45.574;9.252;2023-04-24T05:53:50;6.07;;;4.40;;
47625;SDS011;33342;45.574;9.252;2023-04-24T05:56:18;6.70;;;3.20;;
47625;SDS011;33342;45.574;9.252;2023-04-24T05:58:45;5.32;;;3.13;;
47625;SDS011;33342;45.574;9.252;2023-04-24T06:01:13;5.50;;;2.95;;
47625;SDS011;33342;45.574;9.252;2023-04-24T06:03:46;6.88;;;3.63;;
47625;SDS011;33342;45.574;9.252;2023-04-24T06:06:14;6.25;;;3.35;;
47625;SDS011;33342;45.574;9.252;2023-04-24T06:08:42;5.60;;;3.67;;
47625;SDS011;33342;45.574;9.252;2023-04-24T06:11:10;6.55;;;2.88;;
47625;SDS011;33342;45.574;9.252;2023-04-24T06:13:38;6.30;;;3.55;;
47625;SDS011;33342;45.574;9.252;2023-04-24T06:16:23;4.75;;;2.53;;
47625;SDS011;33342;45.574;9.252;2023-04-24T06:18:58;8.65;;;3.83;;
47625;SDS011;33342;45.574;9.252;2023-04-24T06:21:25;5.60;;;2.65;;
47625;SDS011;33342;45.574;9.252;2023-04-24T06:23:52;3.97;;;2.17;;
47625;SDS011;33342;45.574;9.252;2023-04-24T06:26:19;4.28;;;2.08;;
47625;SDS011;33342;45.574;9.252;2023-04-24T06:28:46;4.47;;;2.50;;
47625;SDS011;33342;45.574;9.252;2023-04-24T06:31:13;4.57;;;1.63;;
47625;SDS011;33342;45.574;9.252;2023-04-24T06:33:40;8.00;;;2.10;;
47625;SDS011;33342;45.574;9.252;2023-04-24T06:36:08;4.45;;;2.15;;
47625;SDS011;33342;45.574;9.252;2023-04-24T06:38:35;4.25;;;2.60;;
47625;SDS011;33342;45.574;9.252;2023-04-24T06:41:02;3.72;;;2.03;;
47625;SDS011;33342;45.574;9.252;2023-04-24T06:43:31;4.63;;;1.98;;
47625;SDS011;33342;45.574;9.252;2023-04-24T06:45:59;3.55;;;1.70;;
47625;SDS011;33342;45.574;9.252;2023-04-24T06:48:26;6.45;;;1.70;;
47625;SDS011;33342;45.574;9.252;2023-04-24T06:50:53;3.13;;;1.90;;
47625;SDS011;33342;45.574;9.252;2023-04-24T06:53:20;4.03;;;1.90;;
47625;SDS011;33342;45.574;9.252;2023-04-24T06:55:47;4.32;;;2.15;;
47625;SDS011;33342;45.574;9.252;2023-04-24T06:58:15;5.43;;;2.22;;
47625;SDS011;33342;45.574;9.252;2023-04-24T07:00:42;5.18;;;2.30;;
47625;SDS011;33342;45.574;9.252;2023-04-24T07:03:09;4.65;;;2.22;;
47625;SDS011;33342;45.574;9.252;2023-04-24T07:05:36;5.55;;;1.83;;
47625;SDS011;33342;45.574;9.252;2023-04-24T07:08:04;4.72;;;2.17;;
47625;SDS011;33342;45.574;9.252;2023-04-24T07:10:33;4.72;;;1.50;;
47625;SDS011;33342;45.574;9.252;2023-04-24T07:13:02;3.63;;;1.70;;
47625;SDS011;33342;45.574;9.252;2023-04-24T07:15:29;3.25;;;1.33;;
47625;SDS011;33342;45.574;9.252;2023-04-24T07:17:56;3.50;;;1.40;;
47625;SDS011;33342;45.574;9.252;2023-04-24T07:20:23;3.47;;;1.20;;
47625;SDS011;33342;45.574;9.252;2023-04-24T07:22:51;3.65;;;1.60;;
47625;SDS011;33342;45.574;9.252;2023-04-24T07:25:20;3.63;;;1.30;;
47625;SDS011;33342;45.574;9.252;2023-04-24T07:27:47;4.35;;;1.60;;
47625;SDS011;33342;45.574;9.252;2023-04-24T07:30:15;6.03;;;2.05;;
47625;SDS011;33342;45.574;9.252;2023-04-24T07:32:42;4.43;;;1.80;;
47625;SDS011;33342;45.574;9.252;2023-04-24T07:35:09;6.22;;;2.28;;
47625;SDS011;33342;45.574;9.252;2023-04-24T07:37:36;2.15;;;1.20;;
47625;SDS011;33342;45.574;9.252;2023-04-24T07:40:03;4.30;;;1.90;;
47625;SDS011;33342;45.574;9.252;2023-04-24T07:42:31;4.18;;;1.83;;
47625;SDS011;33342;45.574;9.252;2023-04-24T07:44:58;4.35;;;2.10;;
47625;SDS011;33342;45.574;9.252;2023-04-24T07:47:26;4.78;;;2.17;;
47625;SDS011;33342;45.574;9.252;2023-04-24T07:49:53;3.30;;;1.50;;
47625;SDS011;33342;45.574;9.252;2023-04-24T07:52:20;4.25;;;1.92;;
47625;SDS011;33342;45.574;9.252;2023-04-24T07:54:47;7.72;;;1.35;;
47625;SDS011;33342;45.574;9.252;2023-04-24T07:57:14;3.75;;;1.90;;
47625;SDS011;33342;45.574;9.252;2023-04-24T07:59:41;3.25;;;1.55;;
47625;SDS011;33342;45.574;9.252;2023-04-24T08:02:09;2.83;;;1.50;;
47625;SDS011;33342;45.574;9.252;2023-04-24T08:04:36;4.53;;;1.77;;
47625;SDS011;33342;45.574;9.252;2023-04-24T08:07:03;5.88;;;2.90;;
47625;SDS011;33342;45.574;9.252;2023-04-24T08:09:30;4.45;;;1.63;;
47625;SDS011;33342;45.574;9.252;2023-04-24T08:11:57;2.70;;;1.58;;
47625;SDS011;33342;45.574;9.252;2023-04-24T08:14:24;4.35;;;2.28;;
47625;SDS011;33342;45.574;9.252;2023-04-24T08:16:53;4.60;;;2.00;;
47625;SDS011;33342;45.574;9.252;2023-04-24T08:19:22;5.80;;;2.25;;
47625;SDS011;33342;45.574;9.252;2023-04-24T08:21:49;4.03;;;1.70;;
47625;SDS011;33342;45.574;9.252;2023-04-24T08:24:16;3.63;;;1.60;;
47625;SDS011;33342;45.574;9.252;2023-04-24T08:26:43;7.10;;;1.95;;
47625;SDS011;33342;45.574;9.252;2023-04-24T08:29:10;3.15;;;1.42;;
47625;SDS011;33342;45.574;9.252;2023-04-24T08:31:37;3.00;;;1.70;;
47625;SDS011;33342;45.574;9.252;2023-04-24T08:34:04;4.32;;;2.00;;
47625;SDS011;33342;45.574;9.252;2023-04-24T08:36:31;5.15;;;1.88;;
47625;SDS011;33342;45.574;9.252;2023-04-24T08:39:12;4.28;;;1.85;;
47625;SDS011;33342;45.574;9.252;2023-04-24T08:41:41;4.85;;;1.92;;
47625;SDS011;33342;45.574;9.252;2023-04-24T08:44:09;4.28;;;2.05;;
47625;SDS011;33342;45.574;9.252;2023-04-24T08:46:37;4.03;;;2.17;;
47625;SDS011;33342;45.574;9.252;2023-04-24T08:49:04;4.15;;;1.85;;
47625;SDS011;33342;45.574;9.252;2023-04-24T08:51:31;4.47;;;2.10;;
47625;SDS011;33342;45.574;9.252;2023-04-24T08:53:58;3.97;;;2.03;;
47625;SDS011;33342;45.574;9.252;2023-04-24T08:56:25;5.88;;;2.20;;
47625;SDS011;33342;45.574;9.252;2023-04-24T08:58:53;5.45;;;2.58;;
47625;SDS011;33342;45.574;9.252;2023-04-24T09:01:21;5.38;;;2.50;;
47625;SDS011;33342;45.574;9.252;2023-04-24T09:03:51;4.13;;;2.28;;
47625;SDS011;33342;45.574;9.252;2023-04-24T09:06:20;4.88;;;2.28;;
47625;SDS011;33342;45.574;9.252;2023-04-24T09:08:48;5.63;;;2.20;;
47625;SDS011;33342;45.574;9.252;2023-04-24T09:11:17;4.78;;;2.35;;
47625;SDS011;33342;45.574;9.252;2023-04-24T09:13:44;5.00;;;2.20;;
47625;SDS011;33342;45.574;9.252;2023-04-24T09:16:12;3.95;;;1.80;;
47625;SDS011;33342;45.574;9.252;2023-04-24T09:18:40;5.30;;;2.47;;
47625;SDS011;33342;45.574;9.252;2023-04-24T09:21:08;3.90;;;2.00;;
47625;SDS011;33342;45.574;9.252;2023-04-24T09:23:36;4.82;;;2.20;;
47625;SDS011;33342;45.574;9.252;2023-04-24T09:26:03;4.40;;;2.30;;
47625;SDS011;33342;45.574;9.252;2023-04-24T09:28:37;5.38;;;2.05;;
47625;SDS011;33342;45.574;9.252;2023-04-24T09:33:37;4.97;;;1.60;;
47625;SDS011;33342;45.574;9.252;2023-04-24T09:36:05;3.83;;;2.40;;
47625;SDS011;33342;45.574;9.252;2023-04-24T09:38:33;4.65;;;2.70;;
47625;SDS011;33342;45.574;9.252;2023-04-24T09:41:04;5.15;;;2.25;;
47625;SDS011;33342;45.574;9.252;2023-04-24T09:43:33;3.75;;;2.17;;
47625;SDS011;33342;45.574;9.252;2023-04-24T09:46:05;3.60;;;1.90;;
47625;SDS011;33342;45.574;9.252;2023-04-24T09:48:34;4.63;;;2.20;;
47625;SDS011;33342;45.574;9.252;2023-04-24T09:51:06;3.03;;;1.50;;
47625;SDS011;33342;45.574;9.252;2023-04-24T09:53:33;4.10;;;1.92;;
47625;SDS011;33342;45.574;9.252;2023-04-24T09:56:10;5.30;;;1.73;;
47625;SDS011;33342;45.574;9.252;2023-04-24T09:58:39;6.13;;;2.80;;
47625;SDS011;33342;45.574;9.252;2023-04-24T10:01:06;3.80;;;1.88;;
47625;SDS011;33342;45.574;9.252;2023-04-24T10:03:33;3.95;;;2.20;;
47625;SDS011;33342;45.574;9.252;2023-04-24T10:06:02;6.35;;;2.60;;
47625;SDS011;33342;45.574;9.252;2023-04-24T10:08:36;5.95;;;2.40;;
47625;SDS011;33342;45.574;9.252;2023-04-24T10:11:04;4.82;;;2.30;;
47625;SDS011;33342;45.574;9.252;2023-04-24T10:13:32;6.32;;;3.00;;
47625;SDS011;33342;45.574;9.252;2023-04-24T10:15:59;8.25;;;3.00;;
47625;SDS011;33342;45.574;9.252;2023-04-24T10:18:28;4.82;;;2.45;;
47625;SDS011;33342;45.574;9.252;2023-04-24T10:20:56;3.90;;;2.03;;
47625;SDS011;33342;45.574;9.252;2023-04-24T10:23:24;4.65;;;2.47;;
47625;SDS011;33342;45.574;9.252;2023-04-24T10:25:52;5.88;;;2.40;;
47625;SDS011;33342;45.574;9.252;2023-04-24T10:28:20;5.50;;;2.50;;
47625;SDS011;33342;45.574;9.252;2023-04-24T10:30:48;4.60;;;2.30;;
47625;SDS011;33342;45.574;9.252;2023-04-24T10:33:16;4.43;;;1.90;;
47625;SDS011;33342;45.574;9.252;2023-04-24T10:35:44;4.25;;;1.90;;
47625;SDS011;33342;45.574;9.252;2023-04-24T10:38:22;4.60;;;1.65;;
47625;SDS011;33342;45.574;9.252;2023-04-24T10:40:56;4.60;;;1.83;;
47625;SDS011;33342;45.574;9.252;2023-04-24T10:43:34;5.45;;;1.63;;
47625;SDS011;33342;45.574;9.252;2023-04-24T10:46:02;4.90;;;1.70;;
47625;SDS011;33342;45.574;9.252;2023-04-24T10:48:31;3.95;;;1.45;;
47625;SDS011;33342;45.574;9.252;2023-04-24T10:50:59;3.65;;;1.52;;
47625;SDS011;33342;45.574;9.252;2023-04-24T10:53:29;3.35;;;1.40;;
47625;SDS011;33342;45.574;9.252;2023-04-24T10:56:07;3.72;;;1.23;;
47625;SDS011;33342;45.574;9.252;2023-04-24T10:58:43;4.22;;;1.55;;
47625;SDS011;33342;45.574;9.252;2023-04-24T11:01:28;2.65;;;1.02;;
47625;SDS011;33342;45.574;9.252;2023-04-24T11:03:57;2.10;;;1.00;;
47625;SDS011;33342;45.574;9.252;2023-04-24T11:06:29;3.17;;;1.52;;
47625;SDS011;33342;45.574;9.252;2023-04-24T11:09:02;4.28;;;1.42;;
47625;SDS011;33342;45.574;9.252;2023-04-24T11:11:32;2.38;;;1.17;;
47625;SDS011;33342;45.574;9.252;2023-04-24T11:19:08;1.92;;;1.08;;
47625;SDS011;33342;45.574;9.252;2023-04-24T11:24:26;2.08;;;1.15;;
47625;SDS011;33342;45.574;9.252;2023-04-24T11:27:05;3.17;;;1.30;;
47625;SDS011;33342;45.574;9.252;2023-04-24T11:29:38;2.72;;;1.02;;
47625;SDS011;33342;45.574;9.252;2023-04-24T11:35:01;1.10;;;0.65;;
47625;SDS011;33342;45.574;9.252;2023-04-24T11:37:36;2.03;;;1.10;;
47625;SDS011;33342;45.574;9.252;2023-04-24T11:40:04;1.17;;;0.70;;
47625;SDS011;33342;45.574;9.252;2023-04-24T11:42:35;1.95;;;0.88;;
47625;SDS011;33342;45.574;9.252;2023-04-24T11:45:17;1.95;;;0.82;;
47625;SDS011;33342;45.574;9.252;2023-04-24T11:47:44;1.73;;;0.73;;
47625;SDS011;33342;45.574;9.252;2023-04-24T11:50:16;2.55;;;1.00;;
47625;SDS011;33342;45.574;9.252;2023-04-24T11:52:46;1.85;;;0.85;;
47625;SDS011;33342;45.574;9.252;2023-04-24T11:57:47;1.35;;;0.73;;
47625;SDS011;33342;45.574;9.252;2023-04-24T12:00:17;1.48;;;0.80;;
47625;SDS011;33342;45.574;9.252;2023-04-24T12:02:46;2.60;;;0.73;;
47625;SDS011;33342;45.574;9.252;2023-04-24T12:05:23;1.42;;;0.73;;
47625;SDS011;33342;45.574;9.252;2023-04-24T12:07:53;2.92;;;0.50;;
47625;SDS011;33342;45.574;9.252;2023-04-24T12:10:21;1.33;;;0.60;;
47625;SDS011;33342;45.574;9.252;2023-04-24T12:12:52;0.95;;;0.55;;
47625;SDS011;33342;45.574;9.252;2023-04-24T12:15:20;1.38;;;0.60;;
47625;SDS011;33342;45.574;9.252;2023-04-24T12:17:48;2.58;;;0.80;;
47625;SDS011;33342;45.574;9.252;2023-04-24T12:20:23;0.93;;;0.55;;
47625;SDS011;33342;45.574;9.252;2023-04-24T12:23:00;1.20;;;0.57;;
47625;SDS011;33342;45.574;9.252;2023-04-24T12:25:31;1.85;;;0.65;;
47625;SDS011;33342;45.574;9.252;2023-04-24T12:30:30;1.30;;;0.80;;
47625;SDS011;33342;45.574;9.252;2023-04-24T12:32:58;1.45;;;0.73;;
47625;SDS011;33342;45.574;9.252;2023-04-24T12:35:28;2.13;;;0.70;;
47625;SDS011;33342;45.574;9.252;2023-04-24T12:38:11;2.42;;;0.90;;
47625;SDS011;33342;45.574;9.252;2023-04-24T12:40:40;1.77;;;0.70;;
47625;SDS011;33342;45.574;9.252;2023-04-24T12:43:15;1.45;;;0.70;;
47625;SDS011;33342;45.574;9.252;2023-04-24T12:45:43;2.30;;;0.60;;
47625;SDS011;33342;45.574;9.252;2023-04-24T12:48:11;2.50;;;0.70;;
47625;SDS011;33342;45.574;9.252;2023-04-24T12:50:40;2.15;;;0.60;;
47625;SDS011;33342;45.574;9.252;2023-04-24T12:53:11;2.78;;;0.63;;
47625;SDS011;33342;45.574;9.252;2023-04-24T12:55:38;1.92;;;0.70;;
47625;SDS011;33342;45.574;9.252;2023-04-24T12:58:06;2.25;;;0.73;;
47625;SDS011;33342;45.574;9.252;2023-04-24T13:00:33;3.35;;;0.70;;
47625;SDS011;33342;45.574;9.252;2023-04-24T13:03:00;2.20;;;0.70;;
47625;SDS011;33342;45.574;9.252;2023-04-24T13:05:29;2.65;;;0.90;;
47625;SDS011;33342;45.574;9.252;2023-04-24T13:07:56;1.98;;;0.63;;
47625;SDS011;33342;45.574;9.252;2023-04-24T13:10:24;2.00;;;0.70;;
47625;SDS011;33342;45.574;9.252;2023-04-24T13:12:51;1.52;;;0.90;;
47625;SDS011;33342;45.574;9.252;2023-04-24T13:15:18;2.75;;;0.75;;
47625;SDS011;33342;45.574;9.252;2023-04-24T13:17:45;1.48;;;0.80;;
47625;SDS011;33342;45.574;9.252;2023-04-24T13:20:12;2.47;;;0.63;;
47625;SDS011;33342;45.574;9.252;2023-04-24T13:22:39;2.92;;;0.88;;
47625;SDS011;33342;45.574;9.252;2023-04-24T13:25:06;1.42;;;0.50;;
47625;SDS011;33342;45.574;9.252;2023-04-24T13:27:33;1.67;;;0.65;;
47625;SDS011;33342;45.574;9.252;2023-04-24T13:30:00;1.15;;;0.70;;
47625;SDS011;33342;45.574;9.252;2023-04-24T13:32:27;1.67;;;0.73;;
47625;SDS011;33342;45.574;9.252;2023-04-24T13:34:56;0.75;;;0.50;;
47625;SDS011;33342;45.574;9.252;2023-04-24T13:37:23;1.63;;;0.70;;
47625;SDS011;33342;45.574;9.252;2023-04-24T13:39:50;1.10;;;0.55;;
47625;SDS011;33342;45.574;9.252;2023-04-24T13:42:17;1.40;;;0.50;;
47625;SDS011;33342;45.574;9.252;2023-04-24T13:44:46;1.73;;;0.75;;
47625;SDS011;33342;45.574;9.252;2023-04-24T13:47:13;2.92;;;0.90;;
47625;SDS011;33342;45.574;9.252;2023-04-24T13:49:40;2.38;;;0.60;;
47625;SDS011;33342;45.574;9.252;2023-04-24T13:52:07;1.95;;;0.52;;
47625;SDS011;33342;45.574;9.252;2023-04-24T13:54:36;1.17;;;0.40;;
47625;SDS011;33342;45.574;9.252;2023-04-24T13:57:03;1.38;;;0.50;;
47625;SDS011;33342;45.574;9.252;2023-04-24T13:59:30;1.67;;;0.57;;
47625;SDS011;33342;45.574;9.252;2023-04-24T14:01:57;1.25;;;0.60;;
47625;SDS011;33342;45.574;9.252;2023-04-24T14:04:24;1.33;;;0.50;;
47625;SDS011;33342;45.574;9.252;2023-04-24T14:06:52;1.60;;;0.50;;
47625;SDS011;33342;45.574;9.252;2023-04-24T14:09:19;2.70;;;0.40;;
47625;SDS011;33342;45.574;9.252;2023-04-24T14:11:46;2.05;;;0.60;;
47625;SDS011;33342;45.574;9.252;2023-04-24T14:14:13;0.80;;;0.47;;
47625;SDS011;33342;45.574;9.252;2023-04-24T14:16:40;2.95;;;0.50;;
47625;SDS011;33342;45.574;9.252;2023-04-24T14:19:07;1.20;;;0.43;;
47625;SDS011;33342;45.574;9.252;2023-04-24T14:21:34;3.35;;;0.57;;
47625;SDS011;33342;45.574;9.252;2023-04-24T14:24:01;1.85;;;0.47;;
47625;SDS011;33342;45.574;9.252;2023-04-24T14:26:28;0.75;;;0.47;;
47625;SDS011;33342;45.574;9.252;2023-04-24T14:28:55;1.90;;;0.47;;
47625;SDS011;33342;45.574;9.252;2023-04-24T14:31:39;1.70;;;0.50;;
47625;SDS011;33342;45.574;9.252;2023-04-24T14:34:09;1.02;;;0.50;;
47625;SDS011;33342;45.574;9.252;2023-04-24T14:36:36;0.47;;;0.38;;
47625;SDS011;33342;45.574;9.252;2023-04-24T14:39:03;0.80;;;0.50;;
47625;SDS011;33342;45.574;9.252;2023-04-24T14:41:33;1.35;;;0.50;;
47625;SDS011;33342;45.574;9.252;2023-04-24T14:44:02;0.63;;;0.30;;
47625;SDS011;33342;45.574;9.252;2023-04-24T14:46:30;1.20;;;0.40;;
47625;SDS011;33342;45.574;9.252;2023-04-24T14:48:57;0.40;;;0.38;;
47625;SDS011;33342;45.574;9.252;2023-04-24T14:51:24;0.60;;;0.40;;
47625;SDS011;33342;45.574;9.252;2023-04-24T14:53:52;1.70;;;0.35;;
47625;SDS011;33342;45.574;9.252;2023-04-24T14:56:19;1.15;;;0.43;;
47625;SDS011;33342;45.574;9.252;2023-04-24T14:58:46;0.90;;;0.50;;
47625;SDS011;33342;45.574;9.252;2023-04-24T15:01:13;2.00;;;0.73;;
47625;SDS011;33342;45.574;9.252;2023-04-24T15:03:41;1.08;;;0.40;;
47625;SDS011;33342;45.574;9.252;2023-04-24T15:06:09;1.08;;;0.50;;
47625;SDS011;33342;45.574;9.252;2023-04-24T15:08:36;0.55;;;0.40;;
47625;SDS011;33342;45.574;9.252;2023-04-24T15:11:03;1.85;;;0.50;;
47625;SDS011;33342;45.574;9.252;2023-04-24T15:13:30;1.08;;;0.57;;